sensor_id;sensor_type;location;lat;lon;timestamp;P1;durP1;ratioP1;P2;durP2;ratioP2
2053;SDS011;1032;52.542;13.440;2022-11-03T00:00:10;12.67;;;7.10;;
2053;SDS011;1032;52.542;13.440;2022-11-03T00:02:38;11.13;;;7.03;;
2053;SDS011;1032;52.542;13.440;2022-11-03T00:05:05;12.37;;;7.10;;
2053;SDS011;1032;52.542;13.440;2022-11-03T00:07:46;12.40;;;7.80;;
2053;SDS011;1032;52.542;13.440;2022-11-03T00:10:12;10.90;;;7.50;;
2053;SDS011;1032;52.542;13.440;2022-11-03T00:12:39;14.53;;;7.03;;
2053;SDS011;1032;52.542;13.440;2022-11-03T00:15:06;14.77;;;7.17;;
2053;SDS011;1032;52.542;13.440;2022-11-03T00:17:33;14.73;;;7.90;;
2053;SDS011;1032;52.542;13.440;2022-11-03T00:20:01;10.93;;;7.07;;
2053;SDS011;1032;52.542;13.440;2022-11-03T00:22:28;10.33;;;7.00;;
2053;SDS011;1032;52.542;13.440;2022-11-03T00:24:57;12.70;;;7.60;;
2053;SDS011;1032;52.542;13.440;2022-11-03T00:27:24;20.03;;;7.73;;
2053;SDS011;1032;52.542;13.440;2022-11-03T00:29:50;15.23;;;7.00;;
2053;SDS011;1032;52.542;13.440;2022-11-03T00:32:17;11.00;;;6.87;;
2053;SDS011;1032;52.542;13.440;2022-11-03T00:34:43;28.27;;;7.60;;
2053;SDS011;1032;52.542;13.440;2022-11-03T00:37:11;9.73;;;5.87;;
2053;SDS011;1032;52.542;13.440;2022-11-03T00:39:38;13.47;;;7.80;;
2053;SDS011;1032;52.542;13.440;2022-11-03T00:42:04;12.60;;;7.30;;
2053;SDS011;1032;52.542;13.440;2022-11-03T00:44:31;12.30;;;7.13;;
2053;SDS011;1032;52.542;13.440;2022-11-03T00:46:58;10.90;;;7.00;;
2053;SDS011;1032;52.542;13.440;2022-11-03T00:49:24;10.83;;;6.83;;
2053;SDS011;1032;52.542;13.440;2022-11-03T00:51:51;8.40;;;5.60;;
2053;SDS011;1032;52.542;13.440;2022-11-03T00:54:19;13.97;;;7.03;;
2053;SDS011;1032;52.542;13.440;2022-11-03T00:56:45;9.17;;;6.00;;
2053;SDS011;1032;52.542;13.440;2022-11-03T00:59:12;11.77;;;7.30;;
2053;SDS011;1032;52.542;13.440;2022-11-03T01:01:39;12.87;;;7.40;;
2053;SDS011;1032;52.542;13.440;2022-11-03T01:04:07;12.30;;;7.50;;
2053;SDS011;1032;52.542;13.440;2022-11-03T01:06:53;15.83;;;7.23;;
2053;SDS011;1032;52.542;13.440;2022-11-03T01:09:24;12.57;;;6.53;;
2053;SDS011;1032;52.542;13.440;2022-11-03T01:11:54;11.43;;;6.57;;
2053;SDS011;1032;52.542;13.440;2022-11-03T01:14:23;11.67;;;6.70;;
2053;SDS011;1032;52.542;13.440;2022-11-03T01:16:50;9.67;;;6.40;;
2053;SDS011;1032;52.542;13.440;2022-11-03T01:19:17;15.10;;;7.07;;
2053;SDS011;1032;52.542;13.440;2022-11-03T01:21:43;14.87;;;8.37;;
2053;SDS011;1032;52.542;13.440;2022-11-03T01:24:10;9.60;;;6.07;;
2053;SDS011;1032;52.542;13.440;2022-11-03T01:26:38;13.80;;;6.47;;
2053;SDS011;1032;52.542;13.440;2022-11-03T01:29:05;14.83;;;9.67;;
2053;SDS011;1032;52.542;13.440;2022-11-03T01:31:31;11.10;;;6.90;;
2053;SDS011;1032;52.542;13.440;2022-11-03T01:33:58;11.63;;;6.97;;
2053;SDS011;1032;52.542;13.440;2022-11-03T01:36:24;10.37;;;5.67;;
2053;SDS011;1032;52.542;13.440;2022-11-03T01:38:52;7.57;;;5.50;;
2053;SDS011;1032;52.542;13.440;2022-11-03T01:41:20;7.77;;;6.10;;
2053;SDS011;1032;52.542;13.440;2022-11-03T01:43:50;12.03;;;6.80;;
2053;SDS011;1032;52.542;13.440;2022-11-03T01:46:38;8.67;;;6.27;;
2053;SDS011;1032;52.542;13.440;2022-11-03T01:49:10;11.00;;;6.60;;
2053;SDS011;1032;52.542;13.440;2022-11-03T01:51:40;9.73;;;6.13;;
2053;SDS011;1032;52.542;13.440;2022-11-03T01:54:11;14.23;;;6.53;;
2053;SDS011;1032;52.542;13.440;2022-11-03T01:56:42;16.10;;;6.37;;
2053;SDS011;1032;52.542;13.440;2022-11-03T01:59:12;9.50;;;5.47;;
2053;SDS011;1032;52.542;13.440;2022-11-03T02:01:40;10.50;;;5.70;;
2053;SDS011;1032;52.542;13.440;2022-11-03T02:04:09;13.87;;;6.43;;
2053;SDS011;1032;52.542;13.440;2022-11-03T02:06:42;14.30;;;5.73;;
2053;SDS011;1032;52.542;13.440;2022-11-03T02:09:08;7.10;;;4.80;;
2053;SDS011;1032;52.542;13.440;2022-11-03T02:11:36;9.93;;;4.67;;
2053;SDS011;1032;52.542;13.440;2022-11-03T02:14:22;8.90;;;5.00;;
2053;SDS011;1032;52.542;13.440;2022-11-03T02:16:50;9.87;;;5.10;;
2053;SDS011;1032;52.542;13.440;2022-11-03T02:19:20;12.53;;;6.10;;
2053;SDS011;1032;52.542;13.440;2022-11-03T02:21:58;10.13;;;4.77;;
2053;SDS011;1032;52.542;13.440;2022-11-03T02:24:34;9.80;;;4.17;;
2053;SDS011;1032;52.542;13.440;2022-11-03T02:27:12;12.23;;;4.60;;
2053;SDS011;1032;52.542;13.440;2022-11-03T02:29:39;10.70;;;4.70;;
2053;SDS011;1032;52.542;13.440;2022-11-03T02:32:06;11.30;;;5.00;;
2053;SDS011;1032;52.542;13.440;2022-11-03T02:34:38;6.53;;;4.03;;
2053;SDS011;1032;52.542;13.440;2022-11-03T02:37:09;14.90;;;4.30;;
2053;SDS011;1032;52.542;13.440;2022-11-03T02:39:42;7.63;;;4.57;;
2053;SDS011;1032;52.542;13.440;2022-11-03T02:42:13;9.63;;;4.30;;
2053;SDS011;1032;52.542;13.440;2022-11-03T02:44:42;7.07;;;4.37;;
2053;SDS011;1032;52.542;13.440;2022-11-03T02:47:11;7.57;;;4.70;;
2053;SDS011;1032;52.542;13.440;2022-11-03T02:49:40;9.40;;;4.90;;
2053;SDS011;1032;52.542;13.440;2022-11-03T02:52:32;8.57;;;4.30;;
2053;SDS011;1032;52.542;13.440;2022-11-03T02:55:02;8.17;;;3.90;;
2053;SDS011;1032;52.542;13.440;2022-11-03T02:57:36;9.83;;;4.20;;
2053;SDS011;1032;52.542;13.440;2022-11-03T03:00:08;8.57;;;4.20;;
2053;SDS011;1032;52.542;13.440;2022-11-03T03:02:37;9.43;;;4.23;;
2053;SDS011;1032;52.542;13.440;2022-11-03T03:05:09;12.70;;;4.70;;
2053;SDS011;1032;52.542;13.440;2022-11-03T03:07:39;6.60;;;4.07;;
2053;SDS011;1032;52.542;13.440;2022-11-03T03:10:10;9.43;;;4.47;;
2053;SDS011;1032;52.542;13.440;2022-11-03T03:12:40;15.57;;;5.30;;
2053;SDS011;1032;52.542;13.440;2022-11-03T03:15:11;8.60;;;4.90;;
2053;SDS011;1032;52.542;13.440;2022-11-03T03:17:40;10.30;;;4.40;;
2053;SDS011;1032;52.542;13.440;2022-11-03T03:20:11;11.90;;;5.00;;
2053;SDS011;1032;52.542;13.440;2022-11-03T03:22:43;10.93;;;5.13;;
2053;SDS011;1032;52.542;13.440;2022-11-03T03:25:15;10.10;;;6.17;;
2053;SDS011;1032;52.542;13.440;2022-11-03T03:27:49;9.93;;;5.20;;
2053;SDS011;1032;52.542;13.440;2022-11-03T03:30:20;7.87;;;4.80;;
2053;SDS011;1032;52.542;13.440;2022-11-03T03:32:47;7.70;;;4.40;;
2053;SDS011;1032;52.542;13.440;2022-11-03T03:35:16;8.37;;;4.97;;
2053;SDS011;1032;52.542;13.440;2022-11-03T03:37:47;8.13;;;5.03;;
2053;SDS011;1032;52.542;13.440;2022-11-03T03:40:18;15.40;;;5.73;;
2053;SDS011;1032;52.542;13.440;2022-11-03T03:42:49;8.80;;;4.60;;
2053;SDS011;1032;52.542;13.440;2022-11-03T03:45:17;9.20;;;5.83;;
2053;SDS011;1032;52.542;13.440;2022-11-03T03:47:44;13.20;;;5.03;;
2053;SDS011;1032;52.542;13.440;2022-11-03T03:50:11;10.73;;;4.40;;
2053;SDS011;1032;52.542;13.440;2022-11-03T03:52:38;11.87;;;4.80;;
2053;SDS011;1032;52.542;13.440;2022-11-03T03:55:05;11.00;;;5.77;;
2053;SDS011;1032;52.542;13.440;2022-11-03T03:57:38;10.77;;;4.30;;
2053;SDS011;1032;52.542;13.440;2022-11-03T04:00:07;20.37;;;6.60;;
2053;SDS011;1032;52.542;13.440;2022-11-03T04:02:37;8.00;;;5.10;;
2053;SDS011;1032;52.542;13.440;2022-11-03T04:05:04;9.73;;;5.10;;
2053;SDS011;1032;52.542;13.440;2022-11-03T04:07:31;10.10;;;4.87;;
2053;SDS011;1032;52.542;13.440;2022-11-03T04:10:13;10.50;;;5.33;;
2053;SDS011;1032;52.542;13.440;2022-11-03T04:12:40;13.57;;;4.57;;
2053;SDS011;1032;52.542;13.440;2022-11-03T04:15:27;7.90;;;5.43;;
2053;SDS011;1032;52.542;13.440;2022-11-03T04:18:20;15.00;;;4.70;;
2053;SDS011;1032;52.542;13.440;2022-11-03T04:21:05;15.17;;;5.80;;
2053;SDS011;1032;52.542;13.440;2022-11-03T04:23:53;10.07;;;4.80;;
2053;SDS011;1032;52.542;13.440;2022-11-03T04:26:19;7.03;;;4.63;;
2053;SDS011;1032;52.542;13.440;2022-11-03T04:28:48;7.27;;;4.40;;
2053;SDS011;1032;52.542;13.440;2022-11-03T04:31:16;14.80;;;5.43;;
2053;SDS011;1032;52.542;13.440;2022-11-03T04:33:44;16.37;;;7.50;;
2053;SDS011;1032;52.542;13.440;2022-11-03T04:36:12;17.30;;;7.70;;
2053;SDS011;1032;52.542;13.440;2022-11-03T04:38:42;14.73;;;5.33;;
2053;SDS011;1032;52.542;13.440;2022-11-03T04:41:11;11.90;;;5.43;;
2053;SDS011;1032;52.542;13.440;2022-11-03T04:43:40;11.90;;;5.10;;
2053;SDS011;1032;52.542;13.440;2022-11-03T04:46:09;9.77;;;5.73;;
2053;SDS011;1032;52.542;13.440;2022-11-03T04:48:39;7.70;;;5.13;;
2053;SDS011;1032;52.542;13.440;2022-11-03T04:51:10;9.40;;;5.07;;
2053;SDS011;1032;52.542;13.440;2022-11-03T04:53:41;8.53;;;4.77;;
2053;SDS011;1032;52.542;13.440;2022-11-03T04:56:14;13.90;;;5.40;;
2053;SDS011;1032;52.542;13.440;2022-11-03T04:58:42;15.60;;;5.63;;
2053;SDS011;1032;52.542;13.440;2022-11-03T05:01:11;9.83;;;5.20;;
2053;SDS011;1032;52.542;13.440;2022-11-03T05:03:41;10.13;;;6.77;;
2053;SDS011;1032;52.542;13.440;2022-11-03T05:06:10;9.07;;;5.53;;
2053;SDS011;1032;52.542;13.440;2022-11-03T05:08:39;9.50;;;5.60;;
2053;SDS011;1032;52.542;13.440;2022-11-03T05:11:14;6.37;;;5.13;;
2053;SDS011;1032;52.542;13.440;2022-11-03T05:13:45;8.10;;;5.50;;
2053;SDS011;1032;52.542;13.440;2022-11-03T05:16:12;13.23;;;5.27;;
2053;SDS011;1032;52.542;13.440;2022-11-03T05:18:41;13.63;;;6.13;;
2053;SDS011;1032;52.542;13.440;2022-11-03T05:21:10;9.73;;;5.00;;
2053;SDS011;1032;52.542;13.440;2022-11-03T05:23:40;16.30;;;5.80;;
2053;SDS011;1032;52.542;13.440;2022-11-03T05:26:11;16.23;;;5.80;;
2053;SDS011;1032;52.542;13.440;2022-11-03T05:28:42;10.20;;;5.13;;
2053;SDS011;1032;52.542;13.440;2022-11-03T05:31:14;9.67;;;4.97;;
2053;SDS011;1032;52.542;13.440;2022-11-03T05:33:50;10.00;;;5.20;;
2053;SDS011;1032;52.542;13.440;2022-11-03T05:36:19;18.83;;;6.17;;
2053;SDS011;1032;52.542;13.440;2022-11-03T05:38:48;11.47;;;5.97;;
2053;SDS011;1032;52.542;13.440;2022-11-03T05:41:18;10.60;;;5.37;;
2053;SDS011;1032;52.542;13.440;2022-11-03T05:43:51;11.00;;;5.80;;
2053;SDS011;1032;52.542;13.440;2022-11-03T05:46:20;11.60;;;5.70;;
2053;SDS011;1032;52.542;13.440;2022-11-03T05:48:47;9.53;;;5.30;;
2053;SDS011;1032;52.542;13.440;2022-11-03T05:51:17;14.30;;;5.40;;
2053;SDS011;1032;52.542;13.440;2022-11-03T05:53:46;11.73;;;6.23;;
2053;SDS011;1032;52.542;13.440;2022-11-03T05:56:16;10.73;;;5.60;;
2053;SDS011;1032;52.542;13.440;2022-11-03T05:58:45;11.00;;;6.33;;
2053;SDS011;1032;52.542;13.440;2022-11-03T06:01:15;19.63;;;5.77;;
2053;SDS011;1032;52.542;13.440;2022-11-03T06:03:45;12.23;;;5.63;;
2053;SDS011;1032;52.542;13.440;2022-11-03T06:06:15;14.47;;;6.17;;
2053;SDS011;1032;52.542;13.440;2022-11-03T06:08:47;9.57;;;5.17;;
2053;SDS011;1032;52.542;13.440;2022-11-03T06:11:18;12.80;;;5.37;;
2053;SDS011;1032;52.542;13.440;2022-11-03T06:13:49;18.47;;;7.40;;
2053;SDS011;1032;52.542;13.440;2022-11-03T06:16:23;10.23;;;5.27;;
2053;SDS011;1032;52.542;13.440;2022-11-03T06:19:01;10.63;;;5.43;;
2053;SDS011;1032;52.542;13.440;2022-11-03T06:22:00;18.97;;;5.60;;
2053;SDS011;1032;52.542;13.440;2022-11-03T06:24:31;13.70;;;7.37;;
2053;SDS011;1032;52.542;13.440;2022-11-03T06:26:59;12.03;;;5.17;;
2053;SDS011;1032;52.542;13.440;2022-11-03T06:29:28;12.63;;;6.50;;
2053;SDS011;1032;52.542;13.440;2022-11-03T06:31:56;11.83;;;5.33;;
2053;SDS011;1032;52.542;13.440;2022-11-03T06:34:33;10.17;;;5.07;;
2053;SDS011;1032;52.542;13.440;2022-11-03T06:39:57;11.93;;;5.90;;
2053;SDS011;1032;52.542;13.440;2022-11-03T06:42:27;10.43;;;5.20;;
2053;SDS011;1032;52.542;13.440;2022-11-03T06:44:57;7.83;;;5.37;;
2053;SDS011;1032;52.542;13.440;2022-11-03T06:47:24;9.90;;;5.50;;
2053;SDS011;1032;52.542;13.440;2022-11-03T06:49:52;10.00;;;5.63;;
2053;SDS011;1032;52.542;13.440;2022-11-03T06:52:22;11.57;;;5.77;;
2053;SDS011;1032;52.542;13.440;2022-11-03T06:54:54;13.70;;;7.00;;
2053;SDS011;1032;52.542;13.440;2022-11-03T06:57:26;16.80;;;6.27;;
2053;SDS011;1032;52.542;13.440;2022-11-03T06:59:58;12.17;;;5.33;;
2053;SDS011;1032;52.542;13.440;2022-11-03T07:02:31;15.23;;;6.20;;
2053;SDS011;1032;52.542;13.440;2022-11-03T07:05:16;11.80;;;6.00;;
2053;SDS011;1032;52.542;13.440;2022-11-03T07:07:46;10.50;;;6.00;;
2053;SDS011;1032;52.542;13.440;2022-11-03T07:10:14;12.60;;;5.83;;
2053;SDS011;1032;52.542;13.440;2022-11-03T07:12:41;9.30;;;5.90;;
2053;SDS011;1032;52.542;13.440;2022-11-03T07:15:15;17.60;;;5.90;;
2053;SDS011;1032;52.542;13.440;2022-11-03T07:17:52;11.63;;;5.40;;
2053;SDS011;1032;52.542;13.440;2022-11-03T07:20:19;11.33;;;5.40;;
2053;SDS011;1032;52.542;13.440;2022-11-03T07:22:46;14.00;;;5.10;;
2053;SDS011;1032;52.542;13.440;2022-11-03T07:25:16;11.43;;;5.47;;
2053;SDS011;1032;52.542;13.440;2022-11-03T07:27:44;15.13;;;4.83;;
2053;SDS011;1032;52.542;13.440;2022-11-03T07:30:18;14.23;;;5.20;;
2053;SDS011;1032;52.542;13.440;2022-11-03T07:32:46;11.80;;;5.40;;
2053;SDS011;1032;52.542;13.440;2022-11-03T07:35:23;11.67;;;5.60;;
2053;SDS011;1032;52.542;13.440;2022-11-03T07:37:55;13.30;;;5.67;;
2053;SDS011;1032;52.542;13.440;2022-11-03T07:40:27;8.73;;;5.30;;
2053;SDS011;1032;52.542;13.440;2022-11-03T07:42:58;8.80;;;5.27;;
2053;SDS011;1032;52.542;13.440;2022-11-03T07:45:35;10.00;;;5.30;;
2053;SDS011;1032;52.542;13.440;2022-11-03T07:48:06;11.70;;;4.93;;
2053;SDS011;1032;52.542;13.440;2022-11-03T07:50:41;10.97;;;6.23;;
2053;SDS011;1032;52.542;13.440;2022-11-03T07:53:09;12.03;;;5.27;;
2053;SDS011;1032;52.542;13.440;2022-11-03T07:55:40;19.17;;;5.53;;
2053;SDS011;1032;52.542;13.440;2022-11-03T07:58:14;12.27;;;5.17;;
2053;SDS011;1032;52.542;13.440;2022-11-03T08:00:48;13.20;;;4.97;;
2053;SDS011;1032;52.542;13.440;2022-11-03T08:03:21;11.47;;;5.27;;
2053;SDS011;1032;52.542;13.440;2022-11-03T08:05:52;8.63;;;4.50;;
2053;SDS011;1032;52.542;13.440;2022-11-03T08:08:18;13.10;;;6.17;;
2053;SDS011;1032;52.542;13.440;2022-11-03T08:10:46;11.73;;;5.80;;
2053;SDS011;1032;52.542;13.440;2022-11-03T08:13:13;13.57;;;5.53;;
2053;SDS011;1032;52.542;13.440;2022-11-03T08:15:39;16.33;;;6.40;;
2053;SDS011;1032;52.542;13.440;2022-11-03T08:18:06;10.70;;;5.17;;
2053;SDS011;1032;52.542;13.440;2022-11-03T08:20:33;12.57;;;4.83;;
2053;SDS011;1032;52.542;13.440;2022-11-03T08:22:59;11.87;;;5.33;;
2053;SDS011;1032;52.542;13.440;2022-11-03T08:25:26;10.53;;;5.03;;
2053;SDS011;1032;52.542;13.440;2022-11-03T08:27:54;10.53;;;5.50;;
2053;SDS011;1032;52.542;13.440;2022-11-03T08:30:20;12.63;;;4.90;;
2053;SDS011;1032;52.542;13.440;2022-11-03T08:32:47;8.60;;;4.70;;
2053;SDS011;1032;52.542;13.440;2022-11-03T08:35:13;14.50;;;5.90;;
2053;SDS011;1032;52.542;13.440;2022-11-03T08:37:41;10.23;;;5.13;;
2053;SDS011;1032;52.542;13.440;2022-11-03T08:40:08;9.97;;;5.03;;
2053;SDS011;1032;52.542;13.440;2022-11-03T08:42:35;11.40;;;5.33;;
2053;SDS011;1032;52.542;13.440;2022-11-03T08:45:04;28.57;;;5.60;;
2053;SDS011;1032;52.542;13.440;2022-11-03T08:47:31;11.53;;;4.77;;
2053;SDS011;1032;52.542;13.440;2022-11-03T08:49:58;13.87;;;5.17;;
2053;SDS011;1032;52.542;13.440;2022-11-03T08:52:25;11.30;;;4.63;;
2053;SDS011;1032;52.542;13.440;2022-11-03T08:54:51;9.13;;;4.00;;
2053;SDS011;1032;52.542;13.440;2022-11-03T08:57:18;8.77;;;3.97;;
2053;SDS011;1032;52.542;13.440;2022-11-03T08:59:44;10.20;;;4.17;;
2053;SDS011;1032;52.542;13.440;2022-11-03T09:02:12;7.77;;;4.43;;
2053;SDS011;1032;52.542;13.440;2022-11-03T09:04:39;9.80;;;4.10;;
2053;SDS011;1032;52.542;13.440;2022-11-03T09:07:06;14.33;;;4.53;;
2053;SDS011;1032;52.542;13.440;2022-11-03T09:09:32;11.80;;;4.40;;
2053;SDS011;1032;52.542;13.440;2022-11-03T09:11:59;12.77;;;4.03;;
2053;SDS011;1032;52.542;13.440;2022-11-03T09:14:25;8.37;;;3.97;;
2053;SDS011;1032;52.542;13.440;2022-11-03T09:16:52;9.77;;;4.00;;
2053;SDS011;1032;52.542;13.440;2022-11-03T09:19:20;6.43;;;3.50;;
2053;SDS011;1032;52.542;13.440;2022-11-03T09:21:46;11.33;;;3.53;;
2053;SDS011;1032;52.542;13.440;2022-11-03T09:24:13;8.20;;;3.63;;
2053;SDS011;1032;52.542;13.440;2022-11-03T09:26:40;7.53;;;3.93;;
2053;SDS011;1032;52.542;13.440;2022-11-03T09:29:06;12.30;;;4.40;;
2053;SDS011;1032;52.542;13.440;2022-11-03T09:31:33;6.60;;;3.67;;
2053;SDS011;1032;52.542;13.440;2022-11-03T09:33:59;7.77;;;3.90;;
2053;SDS011;1032;52.542;13.440;2022-11-03T09:36:28;14.73;;;4.30;;
2053;SDS011;1032;52.542;13.440;2022-11-03T09:38:54;10.23;;;4.40;;
2053;SDS011;1032;52.542;13.440;2022-11-03T09:41:21;6.77;;;4.93;;
2053;SDS011;1032;52.542;13.440;2022-11-03T09:43:49;5.83;;;3.30;;
2053;SDS011;1032;52.542;13.440;2022-11-03T09:46:15;12.80;;;4.30;;
2053;SDS011;1032;52.542;13.440;2022-11-03T09:48:43;7.27;;;3.90;;
2053;SDS011;1032;52.542;13.440;2022-11-03T09:51:12;7.97;;;4.63;;
2053;SDS011;1032;52.542;13.440;2022-11-03T09:53:44;14.30;;;4.63;;
2053;SDS011;1032;52.542;13.440;2022-11-03T09:56:11;10.23;;;4.40;;
2053;SDS011;1032;52.542;13.440;2022-11-03T09:58:38;8.10;;;3.63;;
2053;SDS011;1032;52.542;13.440;2022-11-03T10:01:07;12.03;;;3.80;;
2053;SDS011;1032;52.542;13.440;2022-11-03T10:03:34;11.83;;;3.80;;
2053;SDS011;1032;52.542;13.440;2022-11-03T10:06:03;8.10;;;4.10;;
2053;SDS011;1032;52.542;13.440;2022-11-03T10:08:30;14.17;;;4.47;;
2053;SDS011;1032;52.542;13.440;2022-11-03T10:11:00;9.67;;;4.17;;
2053;SDS011;1032;52.542;13.440;2022-11-03T10:13:29;10.43;;;3.97;;
2053;SDS011;1032;52.542;13.440;2022-11-03T10:16:00;5.47;;;3.13;;
2053;SDS011;1032;52.542;13.440;2022-11-03T10:18:29;8.07;;;3.37;;
2053;SDS011;1032;52.542;13.440;2022-11-03T10:20:57;16.73;;;3.27;;
2053;SDS011;1032;52.542;13.440;2022-11-03T10:23:27;7.93;;;3.20;;
2053;SDS011;1032;52.542;13.440;2022-11-03T10:25:55;22.10;;;3.97;;
2053;SDS011;1032;52.542;13.440;2022-11-03T10:28:33;6.20;;;3.00;;
2053;SDS011;1032;52.542;13.440;2022-11-03T10:31:00;10.80;;;3.20;;
2053;SDS011;1032;52.542;13.440;2022-11-03T10:33:31;8.50;;;3.20;;
2053;SDS011;1032;52.542;13.440;2022-11-03T10:36:00;7.77;;;3.43;;
2053;SDS011;1032;52.542;13.440;2022-11-03T10:38:28;14.07;;;4.03;;
2053;SDS011;1032;52.542;13.440;2022-11-03T10:41:08;7.20;;;3.43;;
2053;SDS011;1032;52.542;13.440;2022-11-03T10:43:38;8.20;;;3.63;;
2053;SDS011;1032;52.542;13.440;2022-11-03T10:46:08;9.20;;;3.80;;
2053;SDS011;1032;52.542;13.440;2022-11-03T10:48:37;7.90;;;3.60;;
2053;SDS011;1032;52.542;13.440;2022-11-03T10:51:04;11.20;;;4.30;;
2053;SDS011;1032;52.542;13.440;2022-11-03T10:53:30;8.10;;;3.10;;
2053;SDS011;1032;52.542;13.440;2022-11-03T10:55:57;8.77;;;3.70;;
2053;SDS011;1032;52.542;13.440;2022-11-03T10:58:25;7.23;;;2.80;;
2053;SDS011;1032;52.542;13.440;2022-11-03T11:00:52;6.73;;;3.77;;
2053;SDS011;1032;52.542;13.440;2022-11-03T11:03:19;9.27;;;3.30;;
2053;SDS011;1032;52.542;13.440;2022-11-03T11:05:46;8.93;;;3.43;;
2053;SDS011;1032;52.542;13.440;2022-11-03T11:08:13;12.33;;;4.40;;
2053;SDS011;1032;52.542;13.440;2022-11-03T11:10:43;9.60;;;3.70;;
2053;SDS011;1032;52.542;13.440;2022-11-03T11:13:22;23.57;;;6.43;;
2053;SDS011;1032;52.542;13.440;2022-11-03T11:15:52;17.73;;;3.70;;
2053;SDS011;1032;52.542;13.440;2022-11-03T11:21:49;9.60;;;3.73;;
2053;SDS011;1032;52.542;13.440;2022-11-03T11:33:51;6.63;;;4.60;;
2053;SDS011;1032;52.542;13.440;2022-11-03T11:39:59;10.27;;;3.90;;
2053;SDS011;1032;52.542;13.440;2022-11-03T11:42:26;11.97;;;3.63;;
2053;SDS011;1032;52.542;13.440;2022-11-03T11:44:53;11.00;;;3.47;;
2053;SDS011;1032;52.542;13.440;2022-11-03T11:50:28;13.70;;;3.50;;
2053;SDS011;1032;52.542;13.440;2022-11-03T11:52:57;7.83;;;3.33;;
2053;SDS011;1032;52.542;13.440;2022-11-03T11:55:31;6.27;;;3.33;;
2053;SDS011;1032;52.542;13.440;2022-11-03T11:58:03;7.23;;;3.07;;
2053;SDS011;1032;52.542;13.440;2022-11-03T12:00:48;8.77;;;3.27;;
2053;SDS011;1032;52.542;13.440;2022-11-03T12:03:17;9.47;;;4.07;;
2053;SDS011;1032;52.542;13.440;2022-11-03T12:05:52;7.83;;;2.87;;
2053;SDS011;1032;52.542;13.440;2022-11-03T12:08:19;13.93;;;3.97;;
2053;SDS011;1032;52.542;13.440;2022-11-03T12:10:53;6.43;;;3.20;;
2053;SDS011;1032;52.542;13.440;2022-11-03T12:22:03;9.03;;;3.13;;
2053;SDS011;1032;52.542;13.440;2022-11-03T12:24:37;7.87;;;3.00;;
2053;SDS011;1032;52.542;13.440;2022-11-03T12:27:17;13.97;;;2.93;;
2053;SDS011;1032;52.542;13.440;2022-11-03T12:30:03;9.70;;;3.57;;
2053;SDS011;1032;52.542;13.440;2022-11-03T12:32:33;10.07;;;4.10;;
2053;SDS011;1032;52.542;13.440;2022-11-03T12:34:59;8.80;;;3.30;;
2053;SDS011;1032;52.542;13.440;2022-11-03T12:37:27;14.80;;;3.10;;
2053;SDS011;1032;52.542;13.440;2022-11-03T12:39:54;13.27;;;4.50;;
2053;SDS011;1032;52.542;13.440;2022-11-03T12:42:20;7.93;;;3.17;;
2053;SDS011;1032;52.542;13.440;2022-11-03T12:44:49;8.70;;;3.13;;
2053;SDS011;1032;52.542;13.440;2022-11-03T12:47:15;8.90;;;3.33;;
2053;SDS011;1032;52.542;13.440;2022-11-03T12:49:42;8.23;;;3.30;;
2053;SDS011;1032;52.542;13.440;2022-11-03T12:52:08;11.07;;;2.67;;
2053;SDS011;1032;52.542;13.440;2022-11-03T12:54:36;5.83;;;3.37;;
2053;SDS011;1032;52.542;13.440;2022-11-03T12:57:04;9.90;;;2.90;;
2053;SDS011;1032;52.542;13.440;2022-11-03T12:59:30;10.27;;;3.53;;
2053;SDS011;1032;52.542;13.440;2022-11-03T13:01:57;13.33;;;4.30;;
2053;SDS011;1032;52.542;13.440;2022-11-03T13:04:24;7.50;;;2.70;;
2053;SDS011;1032;52.542;13.440;2022-11-03T13:06:50;7.67;;;3.23;;
2053;SDS011;1032;52.542;13.440;2022-11-03T13:09:17;11.40;;;3.67;;
2053;SDS011;1032;52.542;13.440;2022-11-03T13:11:45;10.60;;;2.87;;
2053;SDS011;1032;52.542;13.440;2022-11-03T13:14:31;10.60;;;3.50;;
2053;SDS011;1032;52.542;13.440;2022-11-03T13:16:58;6.83;;;3.00;;
2053;SDS011;1032;52.542;13.440;2022-11-03T13:19:24;6.33;;;2.73;;
2053;SDS011;1032;52.542;13.440;2022-11-03T13:21:51;6.03;;;3.20;;
2053;SDS011;1032;52.542;13.440;2022-11-03T13:24:18;9.90;;;3.80;;
2053;SDS011;1032;52.542;13.440;2022-11-03T13:26:46;7.10;;;3.30;;
2053;SDS011;1032;52.542;13.440;2022-11-03T13:29:12;11.60;;;3.33;;
2053;SDS011;1032;52.542;13.440;2022-11-03T13:31:39;6.23;;;3.13;;
2053;SDS011;1032;52.542;13.440;2022-11-03T13:34:05;6.87;;;2.80;;
2053;SDS011;1032;52.542;13.440;2022-11-03T13:36:32;11.00;;;3.03;;
2053;SDS011;1032;52.542;13.440;2022-11-03T13:38:59;10.43;;;3.13;;
2053;SDS011;1032;52.542;13.440;2022-11-03T13:41:25;8.20;;;3.10;;
2053;SDS011;1032;52.542;13.440;2022-11-03T13:43:53;16.70;;;4.73;;
2053;SDS011;1032;52.542;13.440;2022-11-03T13:46:20;11.30;;;4.90;;
2053;SDS011;1032;52.542;13.440;2022-11-03T13:48:46;9.67;;;3.20;;
2053;SDS011;1032;52.542;13.440;2022-11-03T13:51:13;11.33;;;4.00;;
2053;SDS011;1032;52.542;13.440;2022-11-03T13:53:41;6.97;;;3.03;;
2053;SDS011;1032;52.542;13.440;2022-11-03T13:56:08;10.57;;;3.57;;
2053;SDS011;1032;52.542;13.440;2022-11-03T13:58:34;8.23;;;3.10;;
2053;SDS011;1032;52.542;13.440;2022-11-03T14:01:03;7.50;;;2.80;;
2053;SDS011;1032;52.542;13.440;2022-11-03T14:03:29;10.00;;;3.30;;
2053;SDS011;1032;52.542;13.440;2022-11-03T14:05:56;8.23;;;3.40;;
2053;SDS011;1032;52.542;13.440;2022-11-03T14:08:22;7.20;;;2.90;;
2053;SDS011;1032;52.542;13.440;2022-11-03T14:10:49;11.47;;;4.00;;
2053;SDS011;1032;52.542;13.440;2022-11-03T14:13:16;9.07;;;3.47;;
2053;SDS011;1032;52.542;13.440;2022-11-03T14:15:42;8.47;;;3.27;;
2053;SDS011;1032;52.542;13.440;2022-11-03T14:18:10;10.27;;;3.57;;
2053;SDS011;1032;52.542;13.440;2022-11-03T14:20:36;7.47;;;3.30;;
2053;SDS011;1032;52.542;13.440;2022-11-03T14:23:03;7.40;;;3.70;;
2053;SDS011;1032;52.542;13.440;2022-11-03T14:25:29;9.93;;;3.10;;
2053;SDS011;1032;52.542;13.440;2022-11-03T14:27:56;6.83;;;3.40;;
2053;SDS011;1032;52.542;13.440;2022-11-03T14:30:22;6.03;;;3.40;;
2053;SDS011;1032;52.542;13.440;2022-11-03T14:32:49;8.80;;;3.97;;
2053;SDS011;1032;52.542;13.440;2022-11-03T14:35:17;7.23;;;3.20;;
2053;SDS011;1032;52.542;13.440;2022-11-03T14:37:45;9.07;;;4.07;;
2053;SDS011;1032;52.542;13.440;2022-11-03T14:40:12;5.50;;;2.90;;
2053;SDS011;1032;52.542;13.440;2022-11-03T14:42:59;10.10;;;3.93;;
2053;SDS011;1032;52.542;13.440;2022-11-03T14:45:25;6.93;;;3.20;;
2053;SDS011;1032;52.542;13.440;2022-11-03T14:47:52;11.97;;;4.50;;
2053;SDS011;1032;52.542;13.440;2022-11-03T14:50:20;8.87;;;3.00;;
2053;SDS011;1032;52.542;13.440;2022-11-03T14:52:46;8.03;;;3.23;;
2053;SDS011;1032;52.542;13.440;2022-11-03T14:55:13;11.67;;;3.87;;
2053;SDS011;1032;52.542;13.440;2022-11-03T14:57:39;9.37;;;3.70;;
2053;SDS011;1032;52.542;13.440;2022-11-03T15:00:07;6.70;;;3.27;;
2053;SDS011;1032;52.542;13.440;2022-11-03T15:02:35;10.23;;;4.00;;
2053;SDS011;1032;52.542;13.440;2022-11-03T15:05:02;9.77;;;4.03;;
2053;SDS011;1032;52.542;13.440;2022-11-03T15:07:30;7.93;;;3.40;;
2053;SDS011;1032;52.542;13.440;2022-11-03T15:09:57;8.40;;;3.87;;
2053;SDS011;1032;52.542;13.440;2022-11-03T15:12:23;12.47;;;5.07;;
2053;SDS011;1032;52.542;13.440;2022-11-03T15:14:50;7.00;;;4.50;;
2053;SDS011;1032;52.542;13.440;2022-11-03T15:17:17;8.37;;;3.47;;
2053;SDS011;1032;52.542;13.440;2022-11-03T15:19:43;10.17;;;5.87;;
2053;SDS011;1032;52.542;13.440;2022-11-03T15:22:10;10.27;;;4.97;;
2053;SDS011;1032;52.542;13.440;2022-11-03T15:24:38;9.43;;;4.30;;
2053;SDS011;1032;52.542;13.440;2022-11-03T15:27:04;12.43;;;4.87;;
2053;SDS011;1032;52.542;13.440;2022-11-03T15:29:31;8.30;;;4.10;;
2053;SDS011;1032;52.542;13.440;2022-11-03T15:31:58;7.83;;;4.57;;
2053;SDS011;1032;52.542;13.440;2022-11-03T15:34:25;10.20;;;3.73;;
2053;SDS011;1032;52.542;13.440;2022-11-03T15:36:51;8.43;;;4.53;;